createdAt,value
2023-03-08T00:02:31.885Z,42.40
2023-03-08T00:05:02.070Z,41.70
2023-03-08T00:07:31.116Z,45.70
2023-03-08T00:10:00.304Z,39.80
2023-03-08T00:12:29.137Z,40.00
2023-03-08T00:14:57.542Z,38.80
2023-03-08T00:17:31.071Z,37.60
2023-03-08T00:20:00.018Z,37.20
2023-03-08T00:22:28.562Z,37.40
2023-03-08T00:24:57.062Z,36.90
2023-03-08T00:27:27.296Z,34.30
2023-03-08T00:29:56.278Z,34.20
2023-03-08T00:32:28.054Z,32.90
2023-03-08T00:34:56.907Z,33.60
2023-03-08T00:37:26.915Z,32.40
2023-03-08T00:39:56.005Z,32.30
2023-03-08T00:42:31.061Z,31.80
2023-03-08T00:45:00.264Z,31.20
2023-03-08T00:47:30.113Z,29.50
2023-03-08T00:49:58.970Z,29.10
2023-03-08T00:52:27.600Z,30.10
2023-03-08T00:54:56.343Z,31.10
2023-03-08T00:57:26.312Z,29.20
2023-03-08T00:59:56.029Z,30.80
2023-03-08T01:02:24.993Z,31.30
2023-03-08T01:04:53.629Z,31.90
2023-03-08T01:07:24.338Z,31.80
2023-03-08T01:09:55.964Z,33.70
2023-03-08T01:12:26.157Z,31.50
2023-03-08T01:14:55.236Z,38.40
2023-03-08T01:17:23.635Z,32.70
2023-03-08T01:19:52.916Z,34.10
2023-03-08T01:22:21.542Z,34.20
2023-03-08T01:24:50.207Z,34.40
2023-03-08T01:27:19.443Z,30.70
2023-03-08T01:29:48.544Z,32.70
2023-03-08T01:32:17.212Z,32.30
2023-03-08T01:34:46.288Z,33.20
2023-03-08T01:37:14.653Z,31.60
2023-03-08T01:39:43.867Z,37.20
2023-03-08T01:42:12.636Z,35.10
2023-03-08T01:45:03.546Z,34.40
2023-03-08T01:47:36.245Z,34.70
2023-03-08T01:50:27.716Z,36.30
2023-03-08T01:52:56.992Z,41.00
2023-03-08T01:55:25.569Z,37.40
2023-03-08T01:57:55.167Z,35.20
2023-03-08T02:00:24.983Z,34.50
2023-03-08T02:03:02.529Z,34.60
2023-03-08T02:05:31.670Z,39.60
2023-03-08T02:08:06.499Z,40.60
2023-03-08T02:10:37.829Z,40.00
2023-03-08T02:13:07.101Z,39.80
2023-03-08T02:15:36.516Z,37.90
2023-03-08T02:18:05.402Z,36.10
2023-03-08T02:20:40.537Z,36.40
2023-03-08T02:23:09.886Z,34.90
2023-03-08T02:25:38.882Z,33.90
2023-03-08T02:28:10.098Z,29.70
2023-03-08T02:30:39.101Z,42.60
2023-03-08T02:33:07.640Z,44.50
2023-03-08T02:35:36.562Z,40.40
2023-03-08T02:38:06.182Z,34.50
2023-03-08T02:40:37.252Z,39.40
2023-03-08T02:43:05.631Z,34.90
2023-03-08T02:45:34.370Z,34.70
2023-03-08T02:48:04.077Z,36.60
2023-03-08T02:50:32.872Z,32.90
2023-03-08T02:53:04.637Z,33.80
2023-03-08T02:55:37.455Z,34.40
2023-03-08T02:58:10.443Z,34.20
2023-03-08T03:00:39.273Z,33.80
2023-03-08T03:03:09.527Z,32.40
2023-03-08T03:05:43.492Z,31.50
2023-03-08T03:08:13.721Z,29.70
2023-03-08T03:10:42.325Z,31.10
2023-03-08T03:13:12.447Z,29.40
2023-03-08T03:15:41.205Z,31.00
2023-03-08T03:18:11.923Z,32.90
2023-03-08T03:20:40.320Z,30.70
2023-03-08T03:23:12.257Z,30.20
2023-03-08T03:25:52.117Z,31.40
2023-03-08T03:28:21.367Z,33.60
2023-03-08T03:30:52.260Z,32.60
2023-03-08T03:33:21.929Z,32.20
2023-03-08T03:35:52.204Z,38.00
2023-03-08T03:38:22.133Z,38.00
2023-03-08T03:41:04.014Z,38.40
2023-03-08T03:43:34.446Z,38.30
2023-03-08T03:46:07.002Z,41.70
2023-03-08T03:48:36.006Z,40.70
2023-03-08T03:51:11.449Z,39.10
2023-03-08T03:53:43.534Z,39.10
2023-03-08T03:56:14.295Z,36.30
2023-03-08T03:58:43.427Z,37.30
2023-03-08T04:01:15.574Z,39.20
2023-03-08T04:03:44.994Z,37.80
2023-03-08T04:06:16.945Z,37.30
2023-03-08T04:08:53.186Z,38.70
2023-03-08T04:11:24.731Z,37.10
2023-03-08T04:13:53.551Z,37.90
2023-03-08T04:16:30.185Z,38.40
2023-03-08T04:19:05.337Z,38.60
2023-03-08T04:21:34.085Z,38.30
2023-03-08T04:24:02.936Z,36.30
2023-03-08T04:26:32.895Z,35.80
2023-03-08T04:29:06.416Z,35.90
2023-03-08T04:31:37.410Z,33.50
2023-03-08T04:34:10.217Z,33.60
2023-03-08T04:36:39.227Z,32.90
2023-03-08T04:39:08.107Z,31.30
2023-03-08T04:41:42.629Z,34.70
2023-03-08T04:44:16.372Z,31.20
2023-03-08T04:46:48.311Z,33.60
2023-03-08T04:49:21.795Z,35.50
2023-03-08T04:51:53.871Z,38.30
2023-03-08T04:54:24.198Z,35.90
2023-03-08T04:56:58.385Z,42.80
2023-03-08T04:59:31.102Z,34.20
2023-03-08T05:02:01.910Z,36.20
2023-03-08T05:04:31.420Z,39.90
2023-03-08T05:06:59.737Z,36.20
2023-03-08T05:09:30.422Z,37.50
2023-03-08T05:11:59.659Z,39.40
2023-03-08T05:14:35.082Z,42.10
2023-03-08T05:17:04.287Z,40.60
2023-03-08T05:19:34.989Z,40.70
2023-03-08T05:22:03.557Z,44.30
2023-03-08T05:24:32.790Z,46.20
2023-03-08T05:27:10.422Z,53.20
2023-03-08T05:29:39.523Z,48.50
2023-03-08T05:32:12.559Z,47.20
2023-03-08T05:34:42.046Z,50.60
2023-03-08T05:37:13.617Z,44.10
2023-03-08T05:39:44.049Z,43.90
2023-03-08T05:42:17.176Z,45.10
2023-03-08T05:44:46.987Z,41.80
2023-03-08T05:47:18.484Z,45.30
2023-03-08T05:49:52.372Z,53.40
2023-03-08T05:52:21.694Z,51.40
2023-03-08T05:54:50.593Z,47.00
2023-03-08T05:57:21.277Z,51.70
2023-03-08T05:59:51.193Z,53.00
2023-03-08T06:02:22.260Z,54.50
2023-03-08T06:04:54.084Z,49.50
2023-03-08T06:07:24.673Z,52.20
2023-03-08T06:09:59.854Z,56.00
2023-03-08T06:12:31.561Z,57.80
2023-03-08T06:15:02.459Z,54.60
2023-03-08T06:17:34.796Z,56.90
2023-03-08T06:20:03.552Z,66.10
2023-03-08T06:22:33.529Z,65.70
2023-03-08T06:25:05.988Z,67.20
2023-03-08T06:27:38.168Z,65.10
2023-03-08T06:30:12.114Z,64.00
2023-03-08T06:32:42.047Z,61.40
2023-03-08T06:35:11.127Z,58.90
2023-03-08T06:37:43.931Z,55.60
2023-03-08T06:40:13.752Z,54.50
2023-03-08T06:42:44.752Z,50.60
2023-03-08T06:45:15.579Z,46.40
2023-03-08T06:47:44.067Z,41.60
2023-03-08T06:50:14.386Z,43.60
2023-03-08T06:52:45.214Z,40.90
2023-03-08T06:55:15.146Z,39.00
2023-03-08T06:57:44.056Z,36.60
2023-03-08T07:00:15.819Z,38.80
2023-03-08T07:02:46.334Z,32.80
2023-03-08T07:05:16.145Z,36.20
2023-03-08T07:07:47.651Z,38.60
2023-03-08T07:10:18.027Z,43.90
2023-03-08T07:12:50.603Z,40.20
2023-03-08T07:15:21.030Z,41.60
2023-03-08T07:17:51.980Z,44.60
2023-03-08T07:20:20.521Z,48.30
2023-03-08T07:22:50.300Z,47.60
2023-03-08T07:25:20.797Z,49.00
2023-03-08T07:27:50.186Z,47.30
2023-03-08T07:30:18.805Z,40.90
2023-03-08T07:32:47.476Z,43.10
2023-03-08T07:35:20.090Z,41.40
2023-03-08T07:37:49.216Z,45.10
2023-03-08T07:40:18.429Z,43.40
2023-03-08T07:42:47.647Z,40.20
2023-03-08T07:45:33.631Z,40.10
2023-03-08T07:48:02.451Z,39.10
2023-03-08T07:50:31.509Z,35.40
2023-03-08T07:53:00.434Z,35.20
2023-03-08T07:55:29.425Z,27.80
2023-03-08T07:57:58.186Z,26.50
2023-03-08T08:00:27.596Z,23.10
2023-03-08T08:02:56.244Z,24.50
2023-03-08T08:05:25.708Z,25.00
2023-03-08T08:07:54.562Z,23.90
2023-03-08T08:10:23.261Z,25.00
2023-03-08T08:12:56.810Z,22.40
2023-03-08T08:15:25.966Z,20.60
2023-03-08T08:17:54.352Z,21.60
2023-03-08T08:20:22.987Z,22.40
2023-03-08T08:22:53.619Z,22.10
2023-03-08T08:25:23.975Z,22.60
2023-03-08T08:27:52.622Z,24.10
2023-03-08T08:30:21.179Z,20.50
2023-03-08T08:32:53.631Z,23.10
2023-03-08T08:35:25.466Z,22.00
2023-03-08T08:37:59.783Z,23.40
2023-03-08T08:40:28.684Z,24.00
2023-03-08T08:42:57.499Z,23.30
2023-03-08T08:45:26.440Z,24.30
2023-03-08T08:47:54.931Z,21.80
2023-03-08T08:50:23.419Z,22.80
2023-03-08T08:52:52.015Z,21.80
2023-03-08T08:55:20.878Z,22.80
2023-03-08T08:57:49.675Z,20.40
2023-03-08T09:00:19.945Z,21.20
2023-03-08T09:02:48.607Z,19.70
2023-03-08T09:05:17.517Z,22.30
2023-03-08T09:07:46.510Z,21.30
2023-03-08T09:10:14.889Z,21.00
2023-03-08T09:12:43.504Z,20.90
2023-03-08T09:15:12.275Z,18.70
2023-03-08T09:17:41.123Z,21.00
2023-03-08T09:20:13.843Z,19.60
2023-03-08T09:22:42.989Z,18.80
2023-03-08T09:25:11.824Z,17.70
2023-03-08T09:27:40.960Z,16.60
2023-03-08T09:30:13.043Z,14.70
2023-03-08T09:32:41.787Z,15.70
2023-03-08T09:35:10.947Z,16.50
2023-03-08T09:37:39.397Z,14.30
2023-03-08T09:40:11.583Z,15.30
2023-03-08T09:42:40.656Z,14.30
2023-03-08T09:45:19.044Z,12.00
2023-03-08T09:47:50.910Z,13.50
2023-03-08T09:50:32.915Z,13.00
2023-03-08T09:53:42.089Z,12.80
2023-03-08T09:56:24.892Z,12.40
2023-03-08T09:59:14.452Z,13.50
2023-03-08T10:01:52.995Z,12.50
2023-03-08T10:04:24.654Z,12.10
2023-03-08T10:07:21.747Z,13.10
2023-03-08T10:10:02.954Z,13.40
2023-03-08T10:12:52.694Z,12.80
2023-03-08T10:15:26.058Z,13.60
2023-03-08T10:17:59.685Z,12.80
2023-03-08T10:20:28.143Z,14.20
2023-03-08T10:23:02.238Z,13.10
2023-03-08T10:25:34.246Z,13.20
2023-03-08T10:28:04.131Z,12.50
2023-03-08T10:30:36.262Z,11.80
2023-03-08T10:33:07.929Z,11.60
2023-03-08T10:35:56.344Z,10.80
2023-03-08T10:38:31.521Z,10.70
2023-03-08T10:41:02.258Z,10.10
2023-03-08T10:43:33.078Z,9.50
2023-03-08T10:46:04.781Z,10.00
2023-03-08T10:48:33.590Z,10.30
2023-03-08T10:51:30.573Z,8.30
2023-03-08T10:54:00.943Z,9.60
2023-03-08T10:59:01.525Z,10.00
2023-03-08T11:01:32.404Z,8.30
2023-03-08T11:04:13.396Z,8.40
2023-03-08T11:06:42.021Z,8.20
2023-03-08T11:09:24.321Z,7.30
2023-03-08T11:11:53.193Z,7.90
2023-03-08T11:14:21.840Z,7.80
2023-03-08T11:16:59.826Z,7.00
2023-03-08T11:19:43.414Z,7.90
2023-03-08T11:22:43.459Z,7.10
2023-03-08T11:25:50.173Z,7.50
2023-03-08T11:28:27.000Z,7.90
2023-03-08T11:31:08.815Z,6.90
2023-03-08T11:33:50.695Z,6.90
2023-03-08T11:36:19.399Z,7.00
2023-03-08T11:38:52.595Z,7.40
2023-03-08T11:41:40.502Z,7.30
2023-03-08T11:44:16.787Z,7.00
2023-03-08T11:47:03.610Z,6.80
2023-03-08T11:49:34.691Z,7.70
2023-03-08T11:52:28.829Z,7.60
2023-03-08T11:55:10.791Z,7.40
2023-03-08T11:57:44.040Z,9.30
2023-03-08T12:00:30.149Z,6.70
2023-03-08T12:03:01.142Z,11.40
2023-03-08T12:05:33.756Z,8.90
2023-03-08T12:08:05.679Z,8.60
2023-03-08T12:13:23.592Z,7.40
2023-03-08T12:15:57.832Z,8.00
2023-03-08T12:18:34.797Z,8.50
2023-03-08T12:21:13.489Z,7.90
2023-03-08T12:24:26.309Z,7.40
2023-03-08T12:27:00.497Z,7.20
2023-03-08T12:29:55.556Z,7.80
2023-03-08T12:32:27.937Z,7.90
2023-03-08T12:35:24.807Z,9.00
2023-03-08T12:38:07.857Z,7.80
2023-03-08T12:40:50.376Z,7.60
2023-03-08T12:43:22.584Z,7.00
2023-03-08T12:46:01.878Z,7.80
2023-03-08T12:48:56.005Z,8.40
2023-03-08T12:51:33.299Z,8.10
2023-03-08T12:54:06.128Z,8.50
2023-03-08T12:56:49.943Z,7.50
2023-03-08T12:59:22.641Z,7.00
2023-03-08T13:01:58.096Z,7.50
2023-03-08T13:04:40.032Z,7.20
2023-03-08T13:07:20.852Z,6.80
2023-03-08T13:10:19.909Z,6.20
2023-03-08T13:13:00.352Z,6.70
2023-03-08T13:15:29.241Z,7.00
2023-03-08T13:18:00.150Z,6.50
2023-03-08T13:20:42.014Z,6.30
2023-03-08T13:23:13.965Z,6.20
2023-03-08T13:26:05.391Z,8.00
2023-03-08T13:28:46.677Z,7.80
2023-03-08T13:31:21.025Z,8.50
2023-03-08T13:33:55.525Z,8.30
2023-03-08T13:36:31.786Z,7.40
2023-03-08T13:39:21.255Z,7.40
2023-03-08T13:41:50.033Z,8.10
2023-03-08T13:44:23.699Z,8.70
2023-03-08T13:46:55.336Z,11.50
2023-03-08T13:49:31.719Z,10.70
2023-03-08T13:52:01.710Z,11.60
2023-03-08T13:54:36.874Z,10.10
2023-03-08T13:59:52.086Z,6.80
2023-03-08T14:02:25.618Z,7.90
2023-03-08T14:04:54.504Z,8.10
2023-03-08T14:07:32.423Z,8.00
2023-03-08T14:10:01.578Z,7.20
2023-03-08T14:12:31.960Z,8.60
2023-03-08T14:15:03.164Z,9.80
2023-03-08T14:17:35.194Z,8.60
2023-03-08T14:20:13.687Z,7.20
2023-03-08T14:22:42.350Z,8.60
2023-03-08T14:25:25.701Z,8.50
2023-03-08T14:27:55.378Z,9.80
2023-03-08T14:30:30.564Z,9.30
2023-03-08T14:33:08.322Z,12.30
2023-03-08T14:35:40.162Z,11.00
2023-03-08T14:38:20.742Z,10.20
2023-03-08T14:40:52.338Z,10.80
2023-03-08T14:43:22.810Z,11.80
2023-03-08T14:45:59.984Z,10.80
2023-03-08T14:48:30.922Z,11.20
2023-03-08T14:51:19.065Z,10.90
2023-03-08T14:54:00.010Z,9.80
2023-03-08T14:56:33.348Z,9.50
2023-03-08T14:59:04.411Z,10.40
2023-03-08T15:01:36.441Z,8.60
2023-03-08T15:04:13.269Z,8.40
2023-03-08T15:06:44.993Z,8.70
2023-03-08T15:09:18.321Z,7.50
2023-03-08T15:11:49.112Z,7.00
2023-03-08T15:14:17.951Z,7.10
2023-03-08T15:16:47.787Z,7.30
2023-03-08T15:19:17.137Z,7.90
2023-03-08T15:21:45.396Z,8.00
2023-03-08T15:24:19.658Z,7.90
2023-03-08T15:26:48.704Z,7.90
2023-03-08T15:29:38.675Z,7.30
2023-03-08T15:32:07.872Z,7.20
2023-03-08T15:34:36.695Z,7.10
2023-03-08T15:37:07.145Z,7.50
2023-03-08T15:39:35.724Z,7.60
2023-03-08T15:42:04.925Z,7.90
2023-03-08T15:44:34.210Z,8.10
2023-03-08T15:47:02.870Z,8.10
2023-03-08T15:49:32.685Z,7.90
2023-03-08T15:52:01.177Z,8.80
2023-03-08T15:54:32.106Z,9.10
2023-03-08T15:57:00.822Z,10.30
2023-03-08T15:59:29.269Z,10.10
2023-03-08T16:01:57.952Z,10.40
2023-03-08T16:04:26.419Z,10.50
2023-03-08T16:06:55.220Z,11.10
2023-03-08T16:09:24.664Z,10.30
2023-03-08T16:11:58.976Z,8.20
2023-03-08T16:14:27.687Z,9.30
2023-03-08T16:16:59.555Z,11.30
2023-03-08T16:19:42.886Z,12.90
2023-03-08T16:22:11.594Z,13.20
2023-03-08T16:24:42.365Z,13.10
2023-03-08T16:27:11.167Z,10.90
2023-03-08T16:29:39.672Z,11.50
2023-03-08T16:32:08.628Z,10.00
2023-03-08T16:34:39.123Z,10.80
2023-03-08T16:37:07.439Z,10.60
2023-03-08T16:39:38.366Z,10.90
2023-03-08T16:42:13.531Z,12.20
2023-03-08T16:44:51.077Z,12.60
2023-03-08T16:47:20.321Z,12.80
2023-03-08T16:49:53.747Z,12.80
2023-03-08T16:52:22.844Z,12.00
2023-03-08T16:54:51.657Z,11.00
2023-03-08T16:57:21.990Z,12.00
2023-03-08T16:59:50.423Z,10.70
2023-03-08T17:02:20.617Z,10.70
2023-03-08T17:04:49.901Z,10.30
2023-03-08T17:07:19.021Z,10.80
2023-03-08T17:09:50.995Z,10.80
2023-03-08T17:12:20.261Z,12.20
2023-03-08T17:14:48.666Z,10.40
2023-03-08T17:17:19.217Z,12.30
2023-03-08T17:19:51.640Z,11.10
2023-03-08T17:22:20.135Z,10.70
2023-03-08T17:24:50.632Z,10.40
2023-03-08T17:27:19.164Z,10.40
2023-03-08T17:29:48.785Z,10.10
2023-03-08T17:32:18.001Z,10.30
2023-03-08T17:34:47.043Z,8.90
2023-03-08T17:37:16.026Z,8.10
2023-03-08T17:39:45.644Z,7.60
2023-03-08T17:42:13.953Z,8.30
2023-03-08T17:44:47.068Z,9.10
2023-03-08T17:47:19.672Z,8.70
2023-03-08T17:49:49.038Z,7.40
2023-03-08T17:52:17.529Z,7.90
2023-03-08T17:54:48.493Z,7.90
2023-03-08T17:57:18.876Z,8.90
2023-03-08T17:59:48.890Z,6.70
2023-03-08T18:02:18.156Z,7.20
2023-03-08T18:04:47.501Z,7.50
2023-03-08T18:07:17.218Z,6.90
2023-03-08T18:09:46.397Z,6.70
2023-03-08T18:12:15.995Z,5.70
2023-03-08T18:14:47.466Z,6.40
2023-03-08T18:17:15.966Z,5.80
2023-03-08T18:19:44.430Z,6.20
2023-03-08T18:22:13.537Z,5.60
2023-03-08T18:24:45.155Z,6.90
2023-03-08T18:27:13.870Z,5.30
2023-03-08T18:29:42.992Z,5.80
2023-03-08T18:32:12.307Z,6.20
2023-03-08T18:34:41.791Z,6.20
2023-03-08T18:37:10.293Z,6.00
2023-03-08T18:39:39.424Z,5.50
2023-03-08T18:42:08.580Z,5.40
2023-03-08T18:44:40.270Z,5.80
2023-03-08T18:47:08.933Z,6.40
2023-03-08T18:49:38.498Z,6.60
2023-03-08T18:52:07.123Z,5.80
2023-03-08T18:54:41.611Z,6.00
2023-03-08T18:57:10.545Z,5.90
2023-03-08T18:59:42.095Z,5.60
2023-03-08T19:02:13.498Z,6.30
2023-03-08T19:04:45.197Z,5.50
2023-03-08T19:07:19.230Z,6.20
2023-03-08T19:09:59.038Z,4.80
2023-03-08T19:12:31.355Z,6.00
2023-03-08T19:15:02.720Z,5.20
2023-03-08T19:17:31.970Z,5.60
2023-03-08T19:20:12.851Z,6.10
2023-03-08T19:22:43.070Z,4.80
2023-03-08T19:25:12.819Z,5.50
2023-03-08T19:27:41.264Z,5.30
2023-03-08T19:30:11.800Z,5.30
2023-03-08T19:32:42.216Z,6.20
2023-03-08T19:35:12.252Z,5.90
2023-03-08T19:37:43.056Z,5.70
2023-03-08T19:40:12.746Z,5.10
2023-03-08T19:42:44.800Z,5.70
2023-03-08T19:45:13.533Z,5.50
2023-03-08T19:47:43.105Z,5.50
2023-03-08T19:50:13.509Z,5.30
2023-03-08T19:52:44.043Z,5.70
2023-03-08T19:57:47.398Z,6.30
2023-03-08T20:01:20.195Z,5.80
2023-03-08T20:03:51.743Z,5.90
2023-03-08T20:06:27.320Z,5.90
2023-03-08T20:09:13.503Z,6.20
2023-03-08T20:11:46.989Z,6.90
2023-03-08T20:14:15.926Z,6.30
2023-03-08T20:17:08.626Z,6.00
2023-03-08T20:19:40.114Z,6.40
2023-03-08T20:22:08.581Z,7.40
2023-03-08T20:24:42.686Z,6.20
2023-03-08T20:27:11.471Z,6.80
2023-03-08T20:29:39.956Z,7.20
2023-03-08T20:32:09.095Z,7.30
2023-03-08T20:34:39.258Z,7.70
2023-03-08T20:37:49.700Z,7.00
2023-03-08T20:41:02.048Z,6.70
2023-03-08T20:44:12.488Z,6.20
2023-03-08T20:47:21.040Z,7.00
2023-03-08T20:50:14.509Z,6.50
2023-03-08T20:53:16.820Z,7.10
2023-03-08T20:55:59.547Z,6.70
2023-03-08T20:58:33.649Z,6.40
2023-03-08T21:01:14.728Z,9.00
2023-03-08T21:06:59.757Z,9.90
2023-03-08T21:09:40.391Z,8.00
2023-03-08T21:12:10.080Z,8.50
2023-03-08T21:14:45.709Z,9.10
2023-03-08T21:17:15.798Z,8.80
2023-03-08T21:19:46.640Z,8.80
2023-03-08T21:22:15.319Z,9.50
2023-03-08T21:24:43.697Z,9.20
2023-03-08T21:27:30.416Z,8.70
2023-03-08T21:30:48.574Z,8.20
2023-03-08T21:33:29.942Z,8.10
2023-03-08T21:36:06.546Z,9.80
2023-03-08T21:38:39.316Z,9.50
2023-03-08T21:41:21.554Z,8.90
2023-03-08T21:43:50.426Z,9.30
2023-03-08T21:46:19.466Z,9.50
2023-03-08T21:48:52.417Z,8.60
2023-03-08T21:51:27.363Z,8.70
2023-03-08T21:53:58.235Z,7.90
2023-03-08T21:56:26.720Z,8.60
2023-03-08T21:58:55.864Z,9.30
2023-03-08T22:01:28.685Z,9.20
2023-03-08T22:04:02.934Z,8.50
2023-03-08T22:06:31.834Z,8.30
2023-03-08T22:09:10.366Z,8.90
2023-03-08T22:11:42.029Z,9.60
2023-03-08T22:14:10.940Z,9.20
2023-03-08T22:16:40.489Z,8.70
2023-03-08T22:19:09.787Z,8.70
2023-03-08T22:21:38.247Z,7.70
2023-03-08T22:24:10.559Z,10.10
2023-03-08T22:26:43.800Z,9.00
2023-03-08T22:29:12.251Z,8.70
2023-03-08T22:31:41.673Z,7.90
2023-03-08T22:34:11.217Z,9.40
2023-03-08T22:36:47.768Z,10.40
2023-03-08T22:39:17.050Z,8.70
2023-03-08T22:41:45.691Z,9.80
2023-03-08T22:44:14.743Z,9.80
2023-03-08T22:46:48.640Z,8.90
2023-03-08T22:49:17.259Z,9.80
2023-03-08T22:51:46.065Z,8.80
2023-03-08T22:54:19.460Z,10.00
2023-03-08T22:56:49.860Z,12.80
2023-03-08T22:59:19.051Z,12.00
2023-03-08T23:01:48.176Z,12.50
2023-03-08T23:04:16.812Z,11.80
2023-03-08T23:06:47.879Z,11.90
2023-03-08T23:09:17.276Z,10.30
2023-03-08T23:11:45.860Z,10.70
2023-03-08T23:14:17.010Z,11.40
2023-03-08T23:16:46.110Z,11.10
2023-03-08T23:19:19.577Z,10.70
2023-03-08T23:22:07.822Z,10.40
2023-03-08T23:24:36.516Z,10.30
2023-03-08T23:27:05.685Z,11.60
2023-03-08T23:29:35.725Z,14.30
2023-03-08T23:32:04.763Z,14.30
2023-03-08T23:34:33.853Z,15.80
2023-03-08T23:37:06.036Z,14.50
2023-03-08T23:39:37.002Z,17.50
2023-03-08T23:42:06.475Z,20.10
2023-03-08T23:44:37.763Z,17.70
2023-03-08T23:47:06.683Z,20.30
2023-03-08T23:49:36.027Z,16.90
2023-03-08T23:52:05.342Z,15.60
2023-03-08T23:54:36.213Z,16.90
2023-03-08T23:57:04.883Z,16.60
2023-03-08T23:59:33.696Z,13.50
